LFRK/CFR METAR and TAF weather

Enter ICAO airport designator
Station Type Date Time Source
LFRK METAR 2020/10/20 18:00 UTC NOAA

LFRK 201800Z AUTO 14010KT 9999 SCT043 BKN200 15/12 Q1002 TEMPO 18015G25KT RA BKN012


Station Type Date Time Source
LFRK Decoded METAR 2020/10/20 18:00 UTC NOAA

Caen, France (LFRK) 49-11N 000-27W 67M
Oct 20, 2020 - 02:00 PM EDT / 2020.10.20 1800 UTC
Wind: from the SE (140 degrees) at 12 MPH (10 KT):0
Visibility: greater than 7 mile(s):0
Sky conditions: mostly cloudy
Temperature: 59 F (15 C)
Dew Point: 53 F (12 C)
Relative Humidity: 82%
Pressure (altimeter): 29.59 in. Hg (1002 hPa)
ob: LFRK 201800Z AUTO 14010KT 9999 SCT043 BKN200 15/12 Q1002 TEMPO 18015G25KT RA BKN012
cycle: 18

Station Type Date Time Source
LFRK TAF 2020/06/02 06:21 UTC NOAA

TAF LFRK 020500Z 0206/0306 33004KT CAVOK

Example: see airport list